createdAt,value
2023-01-30T00:01:00.518Z,66.83
2023-01-30T00:03:03.541Z,67.10
2023-01-30T00:05:07.100Z,66.81
2023-01-30T00:07:10.084Z,66.95
2023-01-30T00:09:14.662Z,67.01
2023-01-30T00:11:20.500Z,67.24
2023-01-30T00:13:23.586Z,67.06
2023-01-30T00:15:26.422Z,66.58
2023-01-30T00:17:29.175Z,66.49
2023-01-30T00:19:31.986Z,66.59
2023-01-30T00:21:34.850Z,67.01
2023-01-30T00:23:38.867Z,66.86
2023-01-30T00:25:41.807Z,66.54
2023-01-30T00:27:46.013Z,67.05
2023-01-30T00:29:57.709Z,66.50
2023-01-30T00:32:07.026Z,66.79
2023-01-30T00:34:09.941Z,66.94
2023-01-30T00:36:12.776Z,66.60
2023-01-30T00:38:15.863Z,66.33
2023-01-30T00:40:19.260Z,66.62
2023-01-30T00:42:39.706Z,66.67
2023-01-30T00:45:01.510Z,66.83
2023-01-30T00:47:09.087Z,66.96
2023-01-30T00:49:12.328Z,67.26
2023-01-30T00:51:15.103Z,67.12
2023-01-30T00:53:18.295Z,67.26
2023-01-30T00:55:21.055Z,67.09
2023-01-30T00:57:23.891Z,67.09
2023-01-30T00:59:26.975Z,67.07
2023-01-30T01:01:31.213Z,66.84
2023-01-30T01:03:34.029Z,66.82
2023-01-30T01:05:37.012Z,67.11
2023-01-30T01:07:39.936Z,66.57
2023-01-30T01:09:43.370Z,66.65
2023-01-30T01:11:46.141Z,66.60
2023-01-30T01:13:49.862Z,66.96
2023-01-30T01:15:52.603Z,66.49
2023-01-30T01:17:57.165Z,66.13
2023-01-30T01:19:59.970Z,66.81
2023-01-30T01:22:02.842Z,66.44
2023-01-30T01:24:06.293Z,66.44
2023-01-30T01:26:09.925Z,66.93
2023-01-30T01:28:12.743Z,66.54
2023-01-30T01:30:15.899Z,66.32
2023-01-30T01:32:21.337Z,66.67
2023-01-30T01:34:25.607Z,66.56
2023-01-30T01:36:52.245Z,66.31
2023-01-30T01:38:52.321Z,66.42
2023-01-30T01:41:03.316Z,67.08
2023-01-30T01:43:16.866Z,66.53
2023-01-30T01:45:23.096Z,66.62
2023-01-30T01:47:26.381Z,66.29
2023-01-30T01:49:33.320Z,66.57
2023-01-30T01:51:39.806Z,66.35
2023-01-30T01:53:48.210Z,66.13
2023-01-30T01:55:55.502Z,66.68
2023-01-30T01:58:03.101Z,66.50
2023-01-30T02:00:11.417Z,66.67
2023-01-30T02:02:18.268Z,66.60
2023-01-30T02:04:46.798Z,66.38
2023-01-30T02:06:51.027Z,66.53
2023-01-30T02:08:58.096Z,67.07
2023-01-30T02:11:06.230Z,67.05
2023-01-30T02:13:09.122Z,67.36
2023-01-30T02:15:12.723Z,67.17
2023-01-30T02:17:15.600Z,67.21
2023-01-30T02:19:26.781Z,67.77
2023-01-30T02:22:08.834Z,67.42
2023-01-30T02:24:30.908Z,67.19
2023-01-30T02:26:56.909Z,67.41
2023-01-30T02:29:26.929Z,67.26
2023-01-30T02:31:42.828Z,67.64
2023-01-30T02:33:58.058Z,67.61
2023-01-30T02:36:10.511Z,67.62
2023-01-30T02:38:31.928Z,67.67
2023-01-30T02:40:43.057Z,67.88
2023-01-30T02:42:52.763Z,68.46
2023-01-30T02:45:02.773Z,68.29
2023-01-30T02:47:11.640Z,68.44
2023-01-30T02:49:19.566Z,68.59
2023-01-30T02:51:25.125Z,67.80
2023-01-30T02:53:32.577Z,68.27
2023-01-30T02:55:36.360Z,68.24
2023-01-30T02:57:39.143Z,68.10
2023-01-30T02:59:47.769Z,68.75
2023-01-30T03:02:15.670Z,68.58
2023-01-30T03:04:43.845Z,67.78
2023-01-30T03:07:03.983Z,67.62
2023-01-30T03:09:17.577Z,67.52
2023-01-30T03:11:25.312Z,68.23
2023-01-30T03:13:37.544Z,67.54
2023-01-30T03:15:44.355Z,67.62
2023-01-30T03:17:49.320Z,67.95
2023-01-30T03:19:54.669Z,67.89
2023-01-30T03:21:57.581Z,67.89
2023-01-30T03:24:00.735Z,68.14
2023-01-30T03:26:06.466Z,68.11
2023-01-30T03:28:10.708Z,68.35
2023-01-30T03:30:14.809Z,68.23
2023-01-30T03:32:17.746Z,68.28
2023-01-30T03:34:22.003Z,68.13
2023-01-30T03:36:25.551Z,68.43
2023-01-30T03:38:29.331Z,68.23
2023-01-30T03:40:32.614Z,68.36
2023-01-30T03:42:35.554Z,68.32
2023-01-30T03:44:38.394Z,67.96
2023-01-30T03:46:41.132Z,68.14
2023-01-30T03:48:43.953Z,68.46
2023-01-30T03:50:50.073Z,68.25
2023-01-30T03:52:52.900Z,68.44
2023-01-30T03:54:57.311Z,68.36
2023-01-30T03:57:00.721Z,68.55
2023-01-30T03:59:03.610Z,68.09
2023-01-30T04:01:14.271Z,68.58
2023-01-30T04:03:17.252Z,68.92
2023-01-30T04:05:20.329Z,68.79
2023-01-30T04:07:32.317Z,69.10
2023-01-30T04:09:35.147Z,69.20
2023-01-30T04:11:39.051Z,69.13
2023-01-30T04:13:42.004Z,69.16
2023-01-30T04:15:46.381Z,68.89
2023-01-30T04:18:14.821Z,69.09
2023-01-30T04:20:26.659Z,68.83
2023-01-30T04:22:33.004Z,68.84
2023-01-30T04:24:35.748Z,68.93
2023-01-30T04:26:39.091Z,68.62
2023-01-30T04:28:44.574Z,68.57
2023-01-30T04:30:48.999Z,68.74
2023-01-30T04:33:17.861Z,68.70
2023-01-30T04:35:20.625Z,69.10
2023-01-30T04:37:23.811Z,69.04
2023-01-30T04:39:28.208Z,69.06
2023-01-30T04:41:31.019Z,69.55
2023-01-30T04:43:36.975Z,69.42
2023-01-30T04:46:00.036Z,68.96
2023-01-30T04:48:02.929Z,68.79
2023-01-30T04:50:10.528Z,68.77
2023-01-30T04:52:13.779Z,68.51
2023-01-30T04:54:16.679Z,68.30
2023-01-30T04:56:20.855Z,68.58
2023-01-30T04:58:25.523Z,68.78
2023-01-30T05:00:28.896Z,68.73
2023-01-30T05:02:35.965Z,68.85
2023-01-30T05:04:38.847Z,68.90
2023-01-30T05:06:41.671Z,68.90
2023-01-30T05:08:46.801Z,68.87
2023-01-30T05:10:49.689Z,69.10
2023-01-30T05:12:53.808Z,69.31
2023-01-30T05:14:57.128Z,69.32
2023-01-30T05:16:59.951Z,69.47
2023-01-30T05:19:02.768Z,69.37
2023-01-30T05:21:07.273Z,69.53
2023-01-30T05:23:10.161Z,69.12
2023-01-30T05:25:13.016Z,69.43
2023-01-30T05:27:15.840Z,69.25
2023-01-30T05:29:19.964Z,69.46
2023-01-30T05:31:22.935Z,69.31
2023-01-30T05:33:25.784Z,69.95
2023-01-30T05:35:28.593Z,70.11
2023-01-30T05:37:31.376Z,70.27
2023-01-30T05:39:34.289Z,70.32
2023-01-30T05:41:37.121Z,70.35
2023-01-30T05:43:40.212Z,70.70
2023-01-30T05:45:44.398Z,70.26
2023-01-30T05:47:53.590Z,71.00
2023-01-30T05:49:57.630Z,70.53
2023-01-30T05:52:00.412Z,70.34
2023-01-30T05:54:03.231Z,70.74
2023-01-30T05:56:06.811Z,70.53
2023-01-30T05:58:09.821Z,70.67
2023-01-30T06:00:13.746Z,70.39
2023-01-30T06:02:17.851Z,70.59
2023-01-30T06:04:20.644Z,70.13
2023-01-30T06:06:24.110Z,70.58
2023-01-30T06:08:26.847Z,70.95
2023-01-30T06:10:29.619Z,71.28
2023-01-30T06:12:32.358Z,71.09
2023-01-30T06:14:35.201Z,71.54
2023-01-30T06:16:38.160Z,71.97
2023-01-30T06:18:42.441Z,71.60
2023-01-30T06:20:49.025Z,71.76
2023-01-30T06:22:51.853Z,71.92
2023-01-30T06:24:54.657Z,72.28
2023-01-30T06:26:57.387Z,72.59
2023-01-30T06:29:00.155Z,72.77
2023-01-30T06:31:03.118Z,72.94
2023-01-30T06:33:06.359Z,72.50
2023-01-30T06:35:10.978Z,72.61
2023-01-30T06:37:13.810Z,72.65
2023-01-30T06:39:16.610Z,72.35
2023-01-30T06:41:19.387Z,72.84
2023-01-30T06:43:22.308Z,72.30
2023-01-30T06:45:25.121Z,72.62
2023-01-30T06:47:27.969Z,72.70
2023-01-30T06:49:30.905Z,72.86
2023-01-30T06:51:35.045Z,72.78
2023-01-30T06:53:38.007Z,72.12
2023-01-30T06:55:40.845Z,72.33
2023-01-30T06:57:44.247Z,72.05
2023-01-30T06:59:47.050Z,71.90
2023-01-30T07:01:49.841Z,71.97
2023-01-30T07:03:52.633Z,71.59
2023-01-30T07:05:55.527Z,71.79
2023-01-30T07:07:59.651Z,72.29
2023-01-30T07:10:08.425Z,72.02
2023-01-30T07:12:12.122Z,72.08
2023-01-30T07:14:15.111Z,72.58
2023-01-30T07:16:18.147Z,72.60
2023-01-30T07:18:20.959Z,72.52
2023-01-30T07:20:23.905Z,72.75
2023-01-30T07:22:27.001Z,72.05
2023-01-30T07:24:31.118Z,72.03
2023-01-30T07:26:34.021Z,72.25
2023-01-30T07:28:36.861Z,71.90
2023-01-30T07:30:39.755Z,71.77
2023-01-30T07:32:42.566Z,72.16
2023-01-30T07:34:45.421Z,72.00
2023-01-30T07:36:48.229Z,72.11
2023-01-30T07:38:51.027Z,72.48
2023-01-30T07:40:55.147Z,72.58
2023-01-30T07:42:59.374Z,72.29
2023-01-30T07:45:02.099Z,72.65
2023-01-30T07:47:04.973Z,72.41
2023-01-30T07:49:08.894Z,72.46
2023-01-30T07:51:11.679Z,72.76
2023-01-30T07:53:17.475Z,72.64
2023-01-30T07:55:20.677Z,73.43
2023-01-30T07:57:24.970Z,73.20
2023-01-30T07:59:27.774Z,73.38
2023-01-30T08:01:30.584Z,73.71
2023-01-30T08:03:33.400Z,73.45
2023-01-30T08:05:36.325Z,74.11
2023-01-30T08:07:39.145Z,73.33
2023-01-30T08:09:42.050Z,73.73
2023-01-30T08:11:44.917Z,73.58
2023-01-30T08:13:49.048Z,73.84
2023-01-30T08:15:51.822Z,73.54
2023-01-30T08:17:56.158Z,73.58
2023-01-30T08:19:58.939Z,73.31
2023-01-30T08:22:01.790Z,73.09
2023-01-30T08:24:05.120Z,72.97
2023-01-30T08:26:07.900Z,73.31
2023-01-30T08:28:10.721Z,73.38
2023-01-30T08:30:15.392Z,73.19
2023-01-30T08:32:18.174Z,72.78
2023-01-30T08:34:20.948Z,73.04
2023-01-30T08:36:23.703Z,72.54
2023-01-30T08:38:26.607Z,72.87
2023-01-30T08:40:29.438Z,72.64
2023-01-30T08:42:32.282Z,73.18
2023-01-30T08:44:35.116Z,72.63
2023-01-30T08:46:40.392Z,72.42
2023-01-30T08:48:49.879Z,72.42
2023-01-30T08:50:53.962Z,72.69
2023-01-30T08:52:57.351Z,72.99
2023-01-30T08:55:00.161Z,73.15
2023-01-30T08:57:02.929Z,72.79
2023-01-30T08:59:07.706Z,72.87
2023-01-30T09:01:10.558Z,73.28
2023-01-30T09:03:15.694Z,72.71
2023-01-30T09:05:18.968Z,72.45
2023-01-30T09:07:22.031Z,72.44
2023-01-30T09:09:24.879Z,72.68
2023-01-30T09:11:27.789Z,72.71
2023-01-30T09:13:31.190Z,72.97
2023-01-30T09:15:35.236Z,72.67
2023-01-30T09:17:38.324Z,72.88
2023-01-30T09:19:42.520Z,71.91
2023-01-30T09:21:45.318Z,72.36
2023-01-30T09:23:48.113Z,73.13
2023-01-30T09:25:50.923Z,72.68
2023-01-30T09:27:53.757Z,72.69
2023-01-30T09:29:56.803Z,72.72
2023-01-30T09:31:59.728Z,72.55
2023-01-30T09:34:02.597Z,72.27
2023-01-30T09:36:08.073Z,72.29
2023-01-30T09:38:10.878Z,72.87
2023-01-30T09:40:16.771Z,71.83
2023-01-30T09:42:38.181Z,71.34
2023-01-30T09:45:11.205Z,71.67
2023-01-30T09:47:16.730Z,71.70
2023-01-30T09:49:31.423Z,71.43
2023-01-30T09:51:44.239Z,71.59
2023-01-30T09:54:12.368Z,71.53
2023-01-30T09:56:15.277Z,71.61
2023-01-30T09:58:21.546Z,71.98
2023-01-30T10:00:29.580Z,72.13
2023-01-30T10:02:42.115Z,71.96
2023-01-30T10:05:00.550Z,71.53
2023-01-30T10:07:17.325Z,71.05
2023-01-30T10:09:34.266Z,71.20
2023-01-30T10:11:53.432Z,71.42
2023-01-30T10:14:11.350Z,72.08
2023-01-30T10:16:19.658Z,71.42
2023-01-30T10:18:46.028Z,71.46
2023-01-30T10:20:59.470Z,72.01
2023-01-30T10:23:20.821Z,71.43
2023-01-30T10:25:30.836Z,71.51
2023-01-30T10:27:37.520Z,71.64
2023-01-30T10:29:45.158Z,71.57
2023-01-30T10:31:51.555Z,70.97
2023-01-30T10:33:59.130Z,71.38
2023-01-30T10:36:06.209Z,70.89
2023-01-30T10:38:17.195Z,71.29
2023-01-30T10:40:25.110Z,71.09
2023-01-30T10:42:32.795Z,71.11
2023-01-30T10:44:35.649Z,71.26
2023-01-30T10:46:56.596Z,71.68
2023-01-30T10:49:03.337Z,71.46
2023-01-30T10:51:16.477Z,70.78
2023-01-30T10:53:26.967Z,70.57
2023-01-30T10:55:38.613Z,71.08
2023-01-30T10:57:51.062Z,71.12
2023-01-30T11:00:02.345Z,71.65
2023-01-30T11:02:20.714Z,71.63
2023-01-30T11:04:30.487Z,71.69
2023-01-30T11:06:35.840Z,72.07
2023-01-30T11:08:40.117Z,71.56
2023-01-30T11:10:42.943Z,71.62
2023-01-30T11:12:46.683Z,72.22
2023-01-30T11:14:59.495Z,71.91
2023-01-30T11:17:03.164Z,71.65
2023-01-30T11:19:19.559Z,71.27
2023-01-30T11:21:34.895Z,71.55
2023-01-30T11:23:46.474Z,71.45
2023-01-30T11:26:05.538Z,71.48
2023-01-30T11:28:17.227Z,71.04
2023-01-30T11:30:22.446Z,71.33
2023-01-30T11:32:27.863Z,71.28
2023-01-30T11:34:30.941Z,71.08
2023-01-30T11:36:35.775Z,70.93
2023-01-30T11:38:57.844Z,71.61
2023-01-30T11:41:17.201Z,71.06
2023-01-30T11:43:20.433Z,70.86
2023-01-30T11:45:26.831Z,71.02
2023-01-30T11:47:32.034Z,71.26
2023-01-30T11:49:46.246Z,71.26
2023-01-30T11:51:55.728Z,71.19
2023-01-30T11:54:01.812Z,71.44
2023-01-30T11:56:15.758Z,71.21
2023-01-30T11:58:19.286Z,71.23
2023-01-30T12:00:25.028Z,71.05
2023-01-30T12:02:32.499Z,70.83
2023-01-30T12:04:35.487Z,71.40
2023-01-30T12:06:40.464Z,71.15
2023-01-30T12:08:44.395Z,71.08
2023-01-30T12:10:50.206Z,71.51
2023-01-30T12:12:56.370Z,71.69
2023-01-30T12:15:11.710Z,71.85
2023-01-30T12:17:21.448Z,71.38
2023-01-30T12:19:40.808Z,71.35
2023-01-30T12:21:50.966Z,70.79
2023-01-30T12:24:01.388Z,71.28
2023-01-30T12:26:11.168Z,70.96
2023-01-30T12:28:23.690Z,70.19
2023-01-30T12:30:33.367Z,70.06
2023-01-30T12:32:36.401Z,70.26
2023-01-30T12:34:39.369Z,70.46
2023-01-30T12:36:48.729Z,70.43
2023-01-30T12:38:58.935Z,70.22
2023-01-30T12:41:17.975Z,70.34
2023-01-30T12:43:36.840Z,70.14
2023-01-30T12:45:48.445Z,70.31
2023-01-30T12:48:09.759Z,70.59
2023-01-30T12:50:40.695Z,69.65
2023-01-30T12:53:00.030Z,69.67
2023-01-30T12:55:20.241Z,69.67
2023-01-30T12:57:34.856Z,69.43
2023-01-30T12:59:50.497Z,69.51
2023-01-30T13:02:07.007Z,69.85
2023-01-30T13:04:21.878Z,70.04
2023-01-30T13:06:49.451Z,70.19
2023-01-30T13:09:06.893Z,70.20
2023-01-30T13:11:28.909Z,69.94
2023-01-30T13:13:42.570Z,70.10
2023-01-30T13:15:53.350Z,69.82
2023-01-30T13:18:14.540Z,69.75
2023-01-30T13:20:36.966Z,70.07
2023-01-30T13:22:45.556Z,70.27
2023-01-30T13:24:59.159Z,70.42
2023-01-30T13:27:07.833Z,71.09
2023-01-30T13:29:16.629Z,71.21
2023-01-30T13:31:24.010Z,70.78
2023-01-30T13:33:31.664Z,70.77
2023-01-30T13:35:38.953Z,70.74
2023-01-30T13:37:42.124Z,70.54
2023-01-30T13:39:48.800Z,70.12
2023-01-30T13:41:59.346Z,70.08
2023-01-30T13:44:16.641Z,70.06
2023-01-30T13:46:25.244Z,69.65
2023-01-30T13:48:40.665Z,69.99
2023-01-30T13:50:50.444Z,70.34
2023-01-30T13:53:01.344Z,70.50
2023-01-30T13:55:15.875Z,70.15
2023-01-30T13:57:26.781Z,70.11
2023-01-30T13:59:51.033Z,69.44
2023-01-30T14:02:19.140Z,69.73
2023-01-30T14:04:45.643Z,69.99
2023-01-30T14:06:48.742Z,70.02
2023-01-30T14:08:55.002Z,69.62
2023-01-30T14:10:58.718Z,69.64
2023-01-30T14:13:07.032Z,69.38
2023-01-30T14:15:24.080Z,69.14
2023-01-30T14:17:28.731Z,68.98
2023-01-30T14:19:39.243Z,69.19
2023-01-30T14:21:55.612Z,69.12
2023-01-30T14:24:01.316Z,69.46
2023-01-30T14:26:04.567Z,69.17
2023-01-30T14:28:50.832Z,68.86
2023-01-30T14:30:55.141Z,69.23
2023-01-30T14:33:00.522Z,68.84
2023-01-30T14:35:21.639Z,69.12
2023-01-30T14:37:48.132Z,69.36
2023-01-30T14:39:54.269Z,69.41
2023-01-30T14:42:21.770Z,69.64
2023-01-30T14:44:58.525Z,69.73
2023-01-30T14:47:01.435Z,69.73
2023-01-30T14:49:34.037Z,69.95
2023-01-30T14:51:44.143Z,69.92
2023-01-30T14:53:56.914Z,69.83
2023-01-30T14:56:02.329Z,69.75
2023-01-30T14:58:05.978Z,69.93
2023-01-30T15:00:19.526Z,70.19
2023-01-30T15:02:27.026Z,70.08
2023-01-30T15:04:34.673Z,70.23
2023-01-30T15:06:38.280Z,70.26
2023-01-30T15:08:43.471Z,70.12
2023-01-30T15:10:57.659Z,70.26
2023-01-30T15:13:31.666Z,70.39
2023-01-30T15:15:41.975Z,70.40
2023-01-30T15:18:07.892Z,70.48
2023-01-30T15:20:30.173Z,70.66
2023-01-30T15:22:41.419Z,70.87
2023-01-30T15:25:11.741Z,71.14
2023-01-30T15:27:23.214Z,71.04
2023-01-30T15:29:53.611Z,71.22
2023-01-30T15:31:57.722Z,70.93
2023-01-30T15:34:00.648Z,70.78
2023-01-30T15:36:19.524Z,70.55
2023-01-30T15:38:29.001Z,70.73
2023-01-30T15:40:32.708Z,70.95
2023-01-30T15:42:35.550Z,70.82
2023-01-30T15:44:50.497Z,70.88
2023-01-30T15:47:04.370Z,70.88
2023-01-30T15:49:24.163Z,71.10
2023-01-30T15:51:31.865Z,71.51
2023-01-30T15:53:38.010Z,71.23
2023-01-30T15:55:44.361Z,71.28
2023-01-30T15:57:50.970Z,71.35
2023-01-30T15:59:55.380Z,72.05
2023-01-30T16:02:04.531Z,71.98
2023-01-30T16:04:26.793Z,72.40
2023-01-30T16:06:33.392Z,72.46
2023-01-30T16:08:37.516Z,72.71
2023-01-30T16:10:45.764Z,72.78
2023-01-30T16:12:49.975Z,73.08
2023-01-30T16:15:03.124Z,72.69
2023-01-30T16:17:12.754Z,72.64
2023-01-30T16:19:26.401Z,73.21
2023-01-30T16:21:34.740Z,72.92
2023-01-30T16:23:41.592Z,73.05
2023-01-30T16:25:48.189Z,73.10
2023-01-30T16:27:53.538Z,72.15
2023-01-30T16:29:59.030Z,72.29
2023-01-30T16:32:02.119Z,72.17
2023-01-30T16:34:06.252Z,72.14
2023-01-30T16:36:33.966Z,72.14
2023-01-30T16:38:40.514Z,72.37
2023-01-30T16:40:46.044Z,71.94
2023-01-30T16:42:57.040Z,71.90
2023-01-30T16:45:40.313Z,71.88
2023-01-30T16:47:43.312Z,72.24
2023-01-30T16:49:49.193Z,72.38
2023-01-30T16:52:01.760Z,71.81
2023-01-30T16:54:05.797Z,72.08
2023-01-30T16:56:11.017Z,72.00
2023-01-30T16:58:18.710Z,71.98
2023-01-30T17:00:24.500Z,71.99
2023-01-30T17:02:34.535Z,71.84
2023-01-30T17:04:41.346Z,72.36
2023-01-30T17:06:44.514Z,72.51
2023-01-30T17:08:52.150Z,73.48
2023-01-30T17:10:56.273Z,73.58
2023-01-30T17:13:00.328Z,73.50
2023-01-30T17:15:26.792Z,73.60
2023-01-30T17:17:29.699Z,73.11
2023-01-30T17:19:32.488Z,73.44
2023-01-30T17:21:48.734Z,73.29
2023-01-30T17:23:55.737Z,73.27
2023-01-30T17:25:58.795Z,73.27
2023-01-30T17:28:01.619Z,73.44
2023-01-30T17:30:13.592Z,73.09
2023-01-30T17:32:17.224Z,73.09
2023-01-30T17:34:22.605Z,73.09
2023-01-30T17:36:28.452Z,73.41
2023-01-30T17:38:31.212Z,73.09
2023-01-30T17:40:37.588Z,72.85
2023-01-30T17:42:40.334Z,72.87
2023-01-30T17:44:43.156Z,72.45
2023-01-30T17:46:47.161Z,72.21
2023-01-30T17:48:50.865Z,72.46
2023-01-30T17:50:53.676Z,72.26
2023-01-30T17:52:56.520Z,72.07
2023-01-30T17:54:59.286Z,71.92
2023-01-30T17:57:05.881Z,71.89
2023-01-30T17:59:14.560Z,71.77
2023-01-30T18:01:18.958Z,71.60
2023-01-30T18:03:21.884Z,71.72
2023-01-30T18:05:25.109Z,71.58
2023-01-30T18:07:30.249Z,71.42
2023-01-30T18:09:33.041Z,71.65
2023-01-30T18:11:37.499Z,71.38
2023-01-30T18:13:43.494Z,71.60
2023-01-30T18:15:46.278Z,71.92
2023-01-30T18:17:50.650Z,71.89
2023-01-30T18:19:54.998Z,72.30
2023-01-30T18:21:58.372Z,72.31
2023-01-30T18:24:01.394Z,72.29
2023-01-30T18:26:04.327Z,72.57
2023-01-30T18:28:10.668Z,72.71
2023-01-30T18:30:17.971Z,72.96
2023-01-30T18:32:21.114Z,72.95
2023-01-30T18:34:24.089Z,73.16
2023-01-30T18:36:26.946Z,72.99
2023-01-30T18:38:30.915Z,72.91
2023-01-30T18:40:33.687Z,73.11
2023-01-30T18:42:36.605Z,72.87
2023-01-30T18:44:39.391Z,72.30
2023-01-30T18:46:43.527Z,72.21
2023-01-30T18:48:47.244Z,72.31
2023-01-30T18:50:50.059Z,72.39
2023-01-30T18:52:52.915Z,72.22
2023-01-30T18:54:55.689Z,72.49
2023-01-30T18:56:58.478Z,72.88
2023-01-30T18:59:05.567Z,72.85
2023-01-30T19:01:13.959Z,72.73
2023-01-30T19:03:18.575Z,72.72
2023-01-30T19:05:21.714Z,73.35
2023-01-30T19:07:24.503Z,73.23
2023-01-30T19:09:27.736Z,73.29
2023-01-30T19:11:48.263Z,73.31
2023-01-30T19:13:51.310Z,73.04
2023-01-30T19:15:58.819Z,72.74
2023-01-30T19:18:01.659Z,73.01
2023-01-30T19:20:12.015Z,73.15
2023-01-30T19:22:16.670Z,73.27
2023-01-30T19:24:21.331Z,73.22
2023-01-30T19:26:26.008Z,73.30
2023-01-30T19:28:30.622Z,73.22
2023-01-30T19:30:33.493Z,73.50
2023-01-30T19:32:36.312Z,73.44
2023-01-30T19:34:39.151Z,73.63
2023-01-30T19:36:43.385Z,73.34
2023-01-30T19:38:48.163Z,73.07
2023-01-30T19:40:50.916Z,72.84
2023-01-30T19:42:56.843Z,72.63
2023-01-30T19:45:02.582Z,72.51
2023-01-30T19:47:05.453Z,72.83
2023-01-30T19:49:08.253Z,72.71
2023-01-30T19:51:13.494Z,72.43
2023-01-30T19:53:17.782Z,72.26
2023-01-30T19:55:20.574Z,72.38
2023-01-30T19:57:23.398Z,72.22
2023-01-30T19:59:26.292Z,72.10
2023-01-30T20:01:32.601Z,72.00
2023-01-30T20:03:36.737Z,72.10
2023-01-30T20:05:39.597Z,72.26
2023-01-30T20:07:42.471Z,72.33
2023-01-30T20:09:46.677Z,72.06
2023-01-30T20:11:49.438Z,71.77
2023-01-30T20:13:53.191Z,72.00
2023-01-30T20:15:57.719Z,71.86
2023-01-30T20:18:00.552Z,71.78
2023-01-30T20:20:03.649Z,71.24
2023-01-30T20:22:08.168Z,72.01
2023-01-30T20:24:12.674Z,71.88
2023-01-30T20:26:18.654Z,72.09
2023-01-30T20:28:21.522Z,72.44
2023-01-30T20:30:24.554Z,72.01
2023-01-30T20:32:27.388Z,72.09
2023-01-30T20:34:30.349Z,72.21
2023-01-30T20:36:33.627Z,71.92
2023-01-30T20:38:38.587Z,72.03
2023-01-30T20:40:41.238Z,72.27
2023-01-30T20:42:45.512Z,71.64
2023-01-30T20:44:48.347Z,71.77
2023-01-30T20:46:51.169Z,71.78
2023-01-30T20:48:55.028Z,71.78
2023-01-30T20:50:57.817Z,71.68
2023-01-30T20:53:00.677Z,71.35
2023-01-30T20:55:03.895Z,71.80
2023-01-30T20:57:06.863Z,71.75
2023-01-30T20:59:12.627Z,72.08
2023-01-30T21:01:18.339Z,71.77
2023-01-30T21:03:24.511Z,71.50
2023-01-30T21:05:27.360Z,71.62
2023-01-30T21:07:30.209Z,71.48
2023-01-30T21:09:33.094Z,71.04
2023-01-30T21:11:35.999Z,71.35
2023-01-30T21:13:39.456Z,71.63
2023-01-30T21:15:43.646Z,71.63
2023-01-30T21:17:47.407Z,71.81
2023-01-30T21:19:50.266Z,71.67
2023-01-30T21:21:55.069Z,71.75
2023-01-30T21:23:59.544Z,72.13
2023-01-30T21:26:08.857Z,72.45
2023-01-30T21:28:11.760Z,72.69
2023-01-30T21:30:14.768Z,72.48
2023-01-30T21:32:19.408Z,72.44
2023-01-30T21:34:22.398Z,72.31
2023-01-30T21:36:25.660Z,72.12
2023-01-30T21:38:46.401Z,72.56
2023-01-30T21:41:09.953Z,72.40
2023-01-30T21:43:15.422Z,72.73
2023-01-30T21:45:20.722Z,73.13
2023-01-30T21:47:25.307Z,73.16
2023-01-30T21:49:28.249Z,73.26
2023-01-30T21:51:31.997Z,73.17
2023-01-30T21:53:34.820Z,73.35
2023-01-30T21:55:37.886Z,73.75
2023-01-30T21:57:40.711Z,73.83
2023-01-30T21:59:43.520Z,73.52
2023-01-30T22:01:46.631Z,73.67
2023-01-30T22:03:50.806Z,73.76
2023-01-30T22:05:53.640Z,73.52
2023-01-30T22:07:56.376Z,73.35
2023-01-30T22:10:01.455Z,73.28
2023-01-30T22:12:04.566Z,73.31
2023-01-30T22:14:07.386Z,73.15
2023-01-30T22:16:13.199Z,73.06
2023-01-30T22:18:16.034Z,73.21
2023-01-30T22:20:20.426Z,73.16
2023-01-30T22:22:25.323Z,73.18
2023-01-30T22:24:27.956Z,73.37
2023-01-30T22:26:31.089Z,73.40
2023-01-30T22:28:35.242Z,73.38
2023-01-30T22:30:38.567Z,73.21
2023-01-30T22:32:41.375Z,73.11
2023-01-30T22:34:44.139Z,73.13
2023-01-30T22:36:48.707Z,73.03
2023-01-30T22:38:51.531Z,72.95
2023-01-30T22:41:01.945Z,72.91
2023-01-30T22:43:04.743Z,73.14
2023-01-30T22:45:08.659Z,73.24
2023-01-30T22:47:11.562Z,72.86
2023-01-30T22:49:14.382Z,72.80
2023-01-30T22:51:19.213Z,73.02
2023-01-30T22:53:24.130Z,72.79
2023-01-30T22:55:26.767Z,72.83
2023-01-30T22:57:29.562Z,72.90
2023-01-30T22:59:32.285Z,73.21
2023-01-30T23:01:37.134Z,73.24
2023-01-30T23:03:40.457Z,72.98
2023-01-30T23:05:43.375Z,73.20
2023-01-30T23:07:46.249Z,73.37
2023-01-30T23:09:50.608Z,72.96
2023-01-30T23:12:13.212Z,73.04
2023-01-30T23:14:18.020Z,72.78
2023-01-30T23:16:22.984Z,72.84
2023-01-30T23:18:43.082Z,72.88
2023-01-30T23:20:45.903Z,72.80
2023-01-30T23:22:51.866Z,72.69
2023-01-30T23:24:56.048Z,72.80
2023-01-30T23:26:58.780Z,72.78
2023-01-30T23:29:03.061Z,72.64
2023-01-30T23:31:07.460Z,72.30
2023-01-30T23:33:10.229Z,72.20
2023-01-30T23:35:13.022Z,72.49
2023-01-30T23:37:15.911Z,72.41
2023-01-30T23:39:18.719Z,72.25
2023-01-30T23:41:24.813Z,72.42
2023-01-30T23:43:28.572Z,72.39
2023-01-30T23:45:31.371Z,72.37
2023-01-30T23:47:34.170Z,72.28
2023-01-30T23:49:37.707Z,71.97
2023-01-30T23:51:44.410Z,72.25
2023-01-30T23:53:48.027Z,71.96
2023-01-30T23:55:51.844Z,71.85
2023-01-30T23:57:56.031Z,71.74
2023-01-30T23:59:58.870Z,71.98
